createdAt,value
2022-11-22T00:00:25.813Z,1.63
2022-11-22T00:02:52.452Z,1.42
2022-11-22T00:05:19.645Z,1.90
2022-11-22T00:07:46.673Z,1.80
2022-11-22T00:10:15.276Z,1.85
2022-11-22T00:12:42.227Z,1.73
2022-11-22T00:15:09.686Z,1.63
2022-11-22T00:17:36.961Z,1.90
2022-11-22T00:20:05.088Z,2.70
2022-11-22T00:22:32.554Z,2.33
2022-11-22T00:24:59.188Z,1.25
2022-11-22T00:27:26.279Z,1.00
2022-11-22T00:29:52.900Z,0.80
2022-11-22T00:32:19.502Z,1.17
2022-11-22T00:34:46.144Z,1.00
2022-11-22T00:37:13.057Z,0.80
2022-11-22T00:39:39.700Z,0.70
2022-11-22T00:42:06.529Z,0.65
2022-11-22T00:44:33.342Z,0.60
2022-11-22T00:47:00.149Z,0.93
2022-11-22T00:49:26.761Z,0.80
2022-11-22T00:51:53.493Z,0.63
2022-11-22T00:54:20.087Z,0.70
2022-11-22T00:56:46.739Z,0.80
2022-11-22T00:59:13.491Z,0.75
2022-11-22T01:01:40.375Z,0.60
2022-11-22T01:04:07.113Z,0.70
2022-11-22T01:06:33.895Z,0.85
2022-11-22T01:09:00.481Z,0.93
2022-11-22T01:11:27.144Z,0.82
2022-11-22T01:13:53.910Z,0.90
2022-11-22T01:16:20.542Z,1.05
2022-11-22T01:18:47.160Z,0.85
2022-11-22T01:21:14.532Z,0.77
2022-11-22T01:23:41.135Z,0.90
2022-11-22T01:26:08.887Z,1.15
2022-11-22T01:28:36.686Z,0.90
2022-11-22T01:31:03.499Z,1.05
2022-11-22T01:33:30.086Z,0.95
2022-11-22T01:35:58.298Z,1.00
2022-11-22T01:38:25.371Z,0.95
2022-11-22T01:40:53.272Z,0.95
2022-11-22T01:43:25.666Z,0.88
2022-11-22T01:45:57.034Z,1.08
2022-11-22T01:48:26.881Z,0.80
2022-11-22T01:51:02.885Z,1.15
2022-11-22T01:53:39.043Z,0.90
2022-11-22T01:56:11.494Z,1.10
2022-11-22T01:58:41.300Z,0.82
2022-11-22T02:01:08.055Z,0.98
2022-11-22T02:03:39.131Z,0.77
2022-11-22T02:06:07.662Z,1.00
2022-11-22T02:08:42.015Z,0.70
2022-11-22T02:11:11.012Z,1.10
2022-11-22T02:13:43.679Z,1.00
2022-11-22T02:16:11.776Z,1.08
2022-11-22T02:18:38.678Z,0.90
2022-11-22T02:21:06.313Z,1.65
2022-11-22T02:23:54.451Z,1.50
2022-11-22T02:26:22.143Z,1.27
2022-11-22T02:28:50.287Z,0.98
2022-11-22T02:31:41.042Z,0.75
2022-11-22T02:34:08.139Z,1.17
2022-11-22T02:36:49.234Z,1.00
2022-11-22T02:39:19.372Z,0.85
2022-11-22T02:41:47.672Z,0.70
2022-11-22T02:44:15.360Z,0.75
2022-11-22T02:46:50.787Z,0.60
2022-11-22T02:49:19.477Z,0.60
2022-11-22T02:51:47.858Z,0.95
2022-11-22T02:54:14.605Z,0.60
2022-11-22T02:56:41.498Z,0.65
2022-11-22T02:59:08.166Z,0.70
2022-11-22T03:01:34.949Z,0.90
2022-11-22T03:04:02.385Z,0.80
2022-11-22T03:06:29.312Z,0.70
2022-11-22T03:08:56.945Z,0.70
2022-11-22T03:11:24.544Z,1.08
2022-11-22T03:13:51.618Z,0.73
2022-11-22T03:16:18.208Z,0.70
2022-11-22T03:18:45.069Z,0.60
2022-11-22T03:21:11.627Z,0.85
2022-11-22T03:23:38.289Z,0.75
2022-11-22T03:26:12.173Z,0.70
2022-11-22T03:28:38.955Z,0.80
2022-11-22T03:31:08.948Z,1.05
2022-11-22T03:33:35.940Z,0.80
2022-11-22T03:36:03.450Z,0.52
2022-11-22T03:38:30.737Z,0.50
2022-11-22T03:40:57.662Z,0.60
2022-11-22T03:43:24.411Z,0.57
2022-11-22T03:45:51.130Z,0.77
2022-11-22T03:48:18.409Z,0.60
2022-11-22T03:50:45.155Z,0.90
2022-11-22T03:53:12.393Z,1.15
2022-11-22T03:55:39.542Z,0.75
2022-11-22T03:58:06.395Z,0.70
2022-11-22T04:00:34.362Z,0.57
2022-11-22T04:03:01.410Z,0.75
2022-11-22T04:05:28.098Z,0.90
2022-11-22T04:07:57.191Z,1.00
2022-11-22T04:10:24.391Z,0.60
2022-11-22T04:12:51.185Z,0.57
2022-11-22T04:15:17.847Z,0.50
2022-11-22T04:17:45.971Z,0.50
2022-11-22T04:20:49.757Z,0.50
2022-11-22T04:23:21.568Z,0.68
2022-11-22T04:25:50.721Z,0.60
2022-11-22T04:28:19.727Z,0.50
2022-11-22T04:31:05.512Z,0.40
2022-11-22T04:33:32.250Z,0.40
2022-11-22T04:35:58.944Z,0.50
2022-11-22T04:38:25.879Z,0.75
2022-11-22T04:40:52.644Z,0.73
2022-11-22T04:43:43.792Z,0.38
2022-11-22T04:46:11.922Z,0.50
2022-11-22T04:48:38.563Z,0.60
2022-11-22T04:51:26.246Z,0.90
2022-11-22T04:53:52.949Z,0.55
2022-11-22T04:56:19.653Z,1.00
2022-11-22T04:58:46.242Z,0.60
2022-11-22T05:01:12.949Z,0.50
2022-11-22T05:03:39.715Z,0.50
2022-11-22T05:06:06.392Z,0.50
2022-11-22T05:08:33.114Z,0.50
2022-11-22T05:10:59.881Z,0.70
2022-11-22T05:13:29.496Z,1.20
2022-11-22T05:15:57.511Z,1.20
2022-11-22T05:18:25.351Z,1.30
2022-11-22T05:20:52.783Z,1.40
2022-11-22T05:23:39.143Z,0.77
2022-11-22T05:26:07.138Z,1.42
2022-11-22T05:28:35.890Z,1.15
2022-11-22T05:31:12.230Z,1.83
2022-11-22T05:33:41.299Z,1.10
2022-11-22T05:36:08.559Z,0.77
2022-11-22T05:38:37.649Z,0.50
2022-11-22T05:41:07.005Z,0.77
2022-11-22T05:43:34.148Z,0.50
2022-11-22T05:46:10.919Z,0.40
2022-11-22T05:48:39.951Z,0.50
2022-11-22T05:51:08.216Z,0.40
2022-11-22T05:53:36.522Z,0.40
2022-11-22T05:56:23.679Z,0.60
2022-11-22T05:58:50.999Z,0.40
2022-11-22T06:01:20.298Z,0.50
2022-11-22T06:03:47.784Z,0.50
2022-11-22T06:06:15.207Z,0.55
2022-11-22T06:08:45.151Z,0.63
2022-11-22T06:11:18.198Z,0.63
2022-11-22T06:13:46.658Z,0.57
2022-11-22T06:16:14.355Z,0.60
2022-11-22T06:18:41.817Z,0.50
2022-11-22T06:21:12.164Z,0.60
2022-11-22T06:23:38.799Z,0.80
2022-11-22T06:26:08.262Z,0.50
2022-11-22T06:28:37.088Z,0.73
2022-11-22T06:31:11.951Z,1.13
2022-11-22T06:33:39.380Z,0.80
2022-11-22T06:36:08.922Z,0.82
2022-11-22T06:38:36.252Z,0.63
2022-11-22T06:41:05.379Z,0.60
2022-11-22T06:43:33.499Z,0.65
2022-11-22T06:46:01.929Z,0.70
2022-11-22T06:48:33.536Z,0.60
2022-11-22T06:51:09.393Z,0.90
2022-11-22T06:53:47.364Z,1.08
2022-11-22T06:56:20.603Z,0.90
2022-11-22T06:58:49.029Z,0.80
2022-11-22T07:01:17.388Z,0.85
2022-11-22T07:03:45.024Z,0.80
2022-11-22T07:06:13.429Z,0.98
2022-11-22T07:08:40.396Z,0.90
2022-11-22T07:11:12.567Z,0.88
2022-11-22T07:13:39.464Z,1.02
2022-11-22T07:16:07.698Z,0.88
2022-11-22T07:18:34.876Z,0.98
2022-11-22T07:21:12.516Z,1.95
2022-11-22T07:23:41.822Z,1.00
2022-11-22T07:26:08.740Z,1.35
2022-11-22T07:28:35.666Z,1.67
2022-11-22T07:31:05.368Z,1.35
2022-11-22T07:33:32.292Z,1.08
2022-11-22T07:36:29.520Z,1.08
2022-11-22T07:38:56.595Z,1.67
2022-11-22T07:41:23.375Z,3.25
2022-11-22T07:43:50.155Z,5.43
2022-11-22T07:46:26.244Z,3.33
2022-11-22T07:48:53.121Z,2.13
2022-11-22T07:51:20.082Z,4.95
2022-11-22T07:53:47.136Z,3.17
2022-11-22T07:56:14.148Z,4.75
2022-11-22T07:58:41.087Z,3.83
2022-11-22T08:01:10.273Z,5.05
2022-11-22T08:03:37.662Z,2.58
2022-11-22T08:06:06.403Z,1.52
2022-11-22T08:08:34.671Z,1.77
2022-11-22T08:11:01.516Z,1.98
2022-11-22T08:13:28.757Z,1.65
2022-11-22T08:15:59.622Z,1.50
2022-11-22T08:18:28.951Z,1.55
2022-11-22T08:21:06.025Z,1.63
2022-11-22T08:23:32.802Z,1.40
2022-11-22T08:25:59.898Z,1.50
2022-11-22T08:28:27.089Z,1.48
2022-11-22T08:31:00.968Z,1.85
2022-11-22T08:33:28.009Z,1.33
2022-11-22T08:35:54.826Z,1.10
2022-11-22T08:38:21.564Z,1.17
2022-11-22T08:40:48.168Z,1.10
2022-11-22T08:43:14.771Z,1.45
2022-11-22T08:45:41.432Z,1.65
2022-11-22T08:48:08.195Z,1.10
2022-11-22T08:50:34.796Z,1.23
2022-11-22T08:53:01.979Z,1.25
2022-11-22T08:55:28.667Z,1.13
2022-11-22T08:58:01.793Z,1.35
2022-11-22T09:00:33.194Z,1.20
2022-11-22T09:03:00.222Z,1.83
2022-11-22T09:05:26.865Z,2.13
2022-11-22T09:10:40.439Z,1.30
2022-11-22T09:13:07.035Z,1.40
2022-11-22T09:15:34.211Z,1.52
2022-11-22T09:18:04.179Z,1.70
2022-11-22T09:20:30.868Z,1.55
2022-11-22T09:22:57.502Z,1.40
2022-11-22T09:25:24.188Z,1.75
2022-11-22T09:27:50.790Z,1.48
2022-11-22T09:30:17.452Z,1.33
2022-11-22T09:32:44.984Z,1.02
2022-11-22T09:35:11.838Z,1.02
2022-11-22T09:37:38.503Z,1.35
2022-11-22T09:40:05.823Z,1.05
2022-11-22T09:42:42.308Z,1.25
2022-11-22T09:45:21.079Z,1.42
2022-11-22T09:48:09.448Z,1.42
2022-11-22T09:50:51.844Z,1.50
2022-11-22T09:53:26.089Z,1.30
2022-11-22T09:56:06.059Z,1.45
2022-11-22T09:58:51.581Z,1.35
2022-11-22T10:01:43.370Z,1.77
2022-11-22T10:04:16.278Z,1.30
2022-11-22T10:07:21.404Z,1.83
2022-11-22T10:10:05.904Z,1.90
2022-11-22T10:12:45.371Z,1.70
2022-11-22T10:15:42.252Z,1.88
2022-11-22T10:18:27.199Z,1.40
2022-11-22T10:20:53.891Z,1.65
2022-11-22T10:23:23.177Z,1.40
2022-11-22T10:26:19.313Z,1.05
2022-11-22T10:28:54.221Z,1.58
2022-11-22T10:31:27.478Z,1.60
2022-11-22T10:34:02.739Z,1.75
2022-11-22T10:36:35.272Z,2.10
2022-11-22T10:39:15.204Z,1.92
2022-11-22T10:41:54.432Z,2.00
2022-11-22T10:44:50.878Z,1.63
2022-11-22T10:47:43.102Z,2.10
2022-11-22T10:50:22.114Z,1.90
2022-11-22T10:53:07.183Z,1.50
2022-11-22T10:55:58.948Z,1.65
2022-11-22T10:58:40.496Z,1.27
2022-11-22T11:01:21.135Z,1.75
2022-11-22T11:03:51.603Z,1.50
2022-11-22T11:07:04.791Z,1.20
2022-11-22T11:10:10.319Z,1.63
2022-11-22T11:12:56.588Z,1.60
2022-11-22T11:15:27.355Z,1.73
2022-11-22T11:17:59.877Z,1.50
2022-11-22T11:20:29.002Z,1.38
2022-11-22T11:25:45.083Z,1.58
2022-11-22T11:28:22.371Z,1.35
2022-11-22T11:30:59.335Z,1.55
2022-11-22T11:33:32.044Z,1.27
2022-11-22T11:36:03.660Z,1.10
2022-11-22T11:38:33.565Z,0.70
2022-11-22T11:41:27.972Z,1.33
2022-11-22T11:44:03.539Z,1.05
2022-11-22T11:46:46.095Z,0.82
2022-11-22T11:49:18.577Z,1.23
2022-11-22T11:51:48.509Z,0.85
2022-11-22T11:54:19.677Z,0.70
2022-11-22T11:56:51.423Z,0.77
2022-11-22T11:59:23.458Z,1.10
2022-11-22T12:02:03.859Z,0.70
2022-11-22T12:04:36.902Z,0.60
2022-11-22T12:07:36.044Z,0.75
2022-11-22T12:10:24.006Z,0.40
2022-11-22T12:13:01.448Z,0.43
2022-11-22T12:15:44.219Z,0.52
2022-11-22T12:18:39.350Z,0.93
2022-11-22T12:21:24.735Z,0.35
2022-11-22T12:24:42.726Z,0.30
2022-11-22T12:26:58.170Z,0.30
2022-11-22T12:29:25.072Z,0.40
2022-11-22T12:32:07.523Z,0.45
2022-11-22T12:34:43.163Z,0.30
2022-11-22T12:39:47.637Z,0.10
2022-11-22T12:42:38.199Z,0.17
2022-11-22T12:45:11.519Z,0.30
2022-11-22T12:47:41.871Z,0.10
2022-11-22T12:50:54.755Z,0.20
2022-11-22T12:53:26.600Z,0.32
2022-11-22T12:56:08.102Z,0.30
2022-11-22T12:58:55.245Z,0.30
2022-11-22T13:01:26.444Z,0.20
2022-11-22T13:03:59.971Z,0.20
2022-11-22T13:06:34.468Z,0.28
2022-11-22T13:09:14.071Z,0.57
2022-11-22T13:11:50.362Z,0.22
2022-11-22T13:14:30.361Z,0.45
2022-11-22T13:16:57.438Z,0.20
2022-11-22T13:19:27.066Z,0.22
2022-11-22T13:21:59.399Z,0.20
2022-11-22T13:24:59.816Z,0.30
2022-11-22T13:27:36.784Z,0.20
2022-11-22T13:30:04.211Z,0.80
2022-11-22T13:32:33.361Z,0.20
2022-11-22T13:35:05.750Z,0.30
2022-11-22T13:37:37.411Z,0.50
2022-11-22T13:40:15.989Z,0.52
2022-11-22T13:42:43.604Z,0.25
2022-11-22T13:45:21.665Z,0.60
2022-11-22T13:47:48.663Z,0.30
2022-11-22T13:50:58.159Z,0.20
2022-11-22T13:53:31.874Z,0.47
2022-11-22T13:56:28.845Z,0.30
2022-11-22T13:59:25.272Z,0.55
2022-11-22T14:01:52.338Z,0.20
2022-11-22T14:04:24.816Z,0.47
2022-11-22T14:07:06.803Z,0.22
2022-11-22T14:09:43.982Z,0.30
2022-11-22T14:12:10.610Z,0.52
2022-11-22T14:15:18.656Z,0.40
2022-11-22T14:18:08.337Z,0.40
2022-11-22T14:20:48.926Z,0.32
2022-11-22T14:23:15.637Z,0.30
2022-11-22T14:25:57.249Z,0.35
2022-11-22T14:28:39.067Z,0.60
2022-11-22T14:31:19.240Z,2.15
2022-11-22T14:34:16.882Z,0.90
2022-11-22T14:36:44.625Z,0.60
2022-11-22T14:39:45.028Z,0.40
2022-11-22T14:42:40.436Z,0.70
2022-11-22T14:45:06.985Z,0.20
2022-11-22T14:47:35.377Z,2.05
2022-11-22T14:50:04.865Z,2.97
2022-11-22T14:52:33.087Z,0.38
2022-11-22T14:55:08.650Z,0.60
2022-11-22T15:00:13.835Z,0.35
2022-11-22T15:03:10.103Z,0.43
2022-11-22T15:09:21.189Z,0.50
2022-11-22T15:09:21.290Z,0.45
2022-11-22T15:12:33.213Z,0.93
2022-11-22T15:59:39.476Z,1.00
2022-11-22T16:02:30.840Z,0.60
2022-11-22T16:06:08.977Z,0.88
2022-11-22T16:07:50.503Z,1.75
2022-11-22T16:10:19.695Z,1.98
2022-11-22T16:12:46.461Z,1.25
2022-11-22T16:15:36.514Z,1.02
2022-11-22T16:18:24.660Z,1.13
2022-11-22T16:21:03.039Z,0.98
2022-11-22T16:23:35.256Z,0.70
2022-11-22T16:26:22.314Z,0.73
2022-11-22T16:28:51.519Z,0.90
2022-11-22T16:31:21.071Z,0.90
2022-11-22T16:33:47.992Z,1.10
2022-11-22T16:36:16.227Z,1.00
2022-11-22T16:38:44.147Z,1.00
2022-11-22T16:41:20.901Z,1.08
2022-11-22T16:43:50.860Z,1.17
2022-11-22T16:46:18.307Z,0.98
2022-11-22T16:48:45.652Z,1.50
2022-11-22T16:51:15.106Z,1.20
2022-11-22T16:53:49.360Z,1.08
2022-11-22T16:56:23.597Z,0.80
2022-11-22T16:58:51.544Z,1.10
2022-11-22T17:01:21.740Z,0.60
2022-11-22T17:03:51.837Z,1.00
2022-11-22T17:06:21.251Z,0.70
2022-11-22T17:08:50.085Z,2.05
2022-11-22T17:11:20.014Z,2.25
2022-11-22T17:13:47.466Z,6.07
2022-11-22T17:16:15.176Z,7.70
2022-11-22T17:18:41.878Z,2.25
2022-11-22T17:21:37.745Z,4.15
2022-11-22T17:24:25.611Z,14.25
2022-11-22T17:26:52.283Z,5.25
2022-11-22T17:29:48.795Z,2.65
2022-11-22T17:32:05.754Z,1.88
2022-11-22T17:34:32.736Z,5.57
2022-11-22T17:36:59.712Z,5.32
2022-11-22T17:39:26.332Z,7.05
2022-11-22T17:41:52.998Z,3.90
2022-11-22T17:44:19.579Z,3.08
2022-11-22T17:46:47.198Z,2.85
2022-11-22T17:49:16.161Z,3.17
2022-11-22T17:51:43.792Z,2.45
2022-11-22T17:54:10.495Z,3.17
2022-11-22T17:56:37.668Z,3.10
2022-11-22T17:59:04.724Z,4.07
2022-11-22T18:01:32.178Z,4.65
2022-11-22T18:03:59.142Z,3.70
2022-11-22T18:06:26.441Z,4.97
2022-11-22T18:08:53.242Z,5.45
2022-11-22T18:11:19.909Z,4.35
2022-11-22T18:13:46.772Z,2.08
2022-11-22T18:16:18.560Z,2.58
2022-11-22T18:19:01.077Z,2.05
2022-11-22T18:21:30.287Z,2.33
2022-11-22T18:24:01.012Z,2.15
2022-11-22T18:26:43.662Z,2.83
2022-11-22T18:32:00.881Z,2.63
2022-11-22T18:34:28.310Z,1.50
2022-11-22T18:37:00.397Z,1.67
2022-11-22T18:39:37.537Z,1.52
2022-11-22T18:42:08.120Z,2.85
2022-11-22T18:44:35.087Z,6.28
2022-11-22T18:47:01.767Z,6.30
2022-11-22T18:49:29.084Z,2.80
2022-11-22T18:51:56.009Z,4.35
2022-11-22T18:54:23.231Z,3.67
2022-11-22T18:56:50.884Z,2.97
2022-11-22T18:59:17.747Z,5.80
2022-11-22T19:01:44.510Z,1.90
2022-11-22T19:04:15.482Z,2.50
2022-11-22T19:06:43.612Z,1.83
2022-11-22T19:09:11.303Z,1.35
2022-11-22T19:11:38.343Z,2.10
2022-11-22T19:14:05.189Z,2.00
2022-11-22T19:16:31.936Z,6.18
2022-11-22T19:18:59.007Z,7.05
2022-11-22T19:21:27.898Z,7.93
2022-11-22T19:23:55.692Z,4.45
2022-11-22T19:26:24.995Z,4.60
2022-11-22T19:28:56.324Z,5.03
2022-11-22T19:31:26.118Z,3.05
2022-11-22T19:33:52.797Z,5.10
2022-11-22T19:36:21.637Z,5.68
2022-11-22T19:38:48.968Z,5.85
2022-11-22T19:41:18.689Z,5.18
2022-11-22T19:43:46.831Z,5.15
2022-11-22T19:46:14.070Z,8.18
2022-11-22T19:48:46.621Z,5.90
2022-11-22T19:51:15.521Z,6.97
2022-11-22T19:53:42.460Z,6.72
2022-11-22T19:56:14.477Z,8.60
2022-11-22T19:58:42.548Z,9.95
2022-11-22T20:01:12.349Z,10.57
2022-11-22T20:03:40.996Z,10.63
2022-11-22T20:06:10.852Z,9.68
2022-11-22T20:08:37.948Z,8.38
2022-11-22T20:11:10.092Z,6.38
2022-11-22T20:13:54.891Z,5.65
2022-11-22T20:16:24.024Z,8.98
2022-11-22T20:18:53.879Z,6.40
2022-11-22T20:21:22.443Z,5.88
2022-11-22T20:23:50.906Z,5.20
2022-11-22T20:26:18.524Z,5.00
2022-11-22T20:28:46.636Z,5.82
2022-11-22T20:31:15.831Z,6.63
2022-11-22T20:33:46.209Z,4.00
2022-11-22T20:36:18.383Z,4.47
2022-11-22T20:38:48.751Z,4.93
2022-11-22T20:41:17.696Z,4.88
2022-11-22T20:43:44.823Z,4.10
2022-11-22T20:46:12.986Z,3.17
2022-11-22T20:48:41.883Z,3.00
2022-11-22T20:51:11.975Z,3.42
2022-11-22T20:53:39.239Z,4.13
2022-11-22T20:56:06.241Z,3.10
2022-11-22T20:58:33.055Z,2.28
2022-11-22T21:01:05.501Z,1.50
2022-11-22T21:03:33.631Z,1.95
2022-11-22T21:06:01.516Z,1.73
2022-11-22T21:08:28.731Z,2.90
2022-11-22T21:11:08.274Z,2.40
2022-11-22T21:13:35.308Z,1.90
2022-11-22T21:16:15.647Z,1.58
2022-11-22T21:18:51.619Z,2.13
2022-11-22T21:21:22.595Z,1.80
2022-11-22T21:23:51.207Z,1.10
2022-11-22T21:26:18.184Z,1.67
2022-11-22T21:28:45.161Z,1.08
2022-11-22T21:31:11.827Z,1.40
2022-11-22T21:33:38.647Z,1.20
2022-11-22T21:36:06.638Z,1.10
2022-11-22T21:38:38.450Z,1.00
2022-11-22T21:41:32.165Z,1.38
2022-11-22T21:43:56.905Z,1.25
2022-11-22T21:46:25.169Z,1.00
2022-11-22T21:48:51.882Z,1.30
2022-11-22T21:51:18.715Z,1.50
2022-11-22T21:53:45.434Z,1.60
2022-11-22T21:56:12.082Z,1.30
2022-11-22T21:58:38.667Z,0.95
2022-11-22T22:01:10.858Z,1.23
2022-11-22T22:03:40.284Z,0.90
2022-11-22T22:06:07.224Z,1.10
2022-11-22T22:08:34.625Z,3.22
2022-11-22T22:11:03.909Z,2.42
2022-11-22T22:13:31.154Z,1.85
2022-11-22T22:16:00.229Z,2.13
2022-11-22T22:18:37.357Z,1.70
2022-11-22T22:21:11.584Z,1.90
2022-11-22T22:23:39.839Z,1.70
2022-11-22T22:26:09.568Z,1.50
2022-11-22T22:28:37.499Z,1.10
2022-11-22T22:31:06.790Z,1.63
2022-11-22T22:33:34.420Z,1.25
2022-11-22T22:36:01.064Z,1.65
2022-11-22T22:38:29.621Z,1.50
2022-11-22T22:40:58.141Z,1.73
2022-11-22T22:43:25.703Z,1.98
2022-11-22T22:45:52.562Z,1.65
2022-11-22T22:48:19.493Z,1.75
2022-11-22T22:50:46.247Z,2.50
2022-11-22T22:53:13.432Z,1.88
2022-11-22T22:55:40.079Z,2.08
2022-11-22T22:58:10.381Z,1.50
2022-11-22T23:00:38.712Z,1.05
2022-11-22T23:03:05.330Z,1.75
2022-11-22T23:05:31.953Z,1.10
2022-11-22T23:07:58.654Z,1.20
2022-11-22T23:10:25.653Z,1.13
2022-11-22T23:12:52.255Z,0.98
2022-11-22T23:15:28.479Z,1.40
2022-11-22T23:18:05.711Z,1.55
2022-11-22T23:20:32.476Z,1.05
2022-11-22T23:22:59.192Z,1.30
2022-11-22T23:25:25.820Z,1.10
2022-11-22T23:27:52.467Z,1.13
2022-11-22T23:30:19.079Z,1.67
2022-11-22T23:32:45.748Z,1.58
2022-11-22T23:35:12.321Z,1.83
2022-11-22T23:37:39.036Z,1.60
2022-11-22T23:40:06.263Z,1.67
2022-11-22T23:42:33.180Z,1.52
2022-11-22T23:44:59.815Z,2.10
2022-11-22T23:47:26.431Z,2.53
2022-11-22T23:49:53.026Z,1.45
2022-11-22T23:52:19.947Z,1.30
2022-11-22T23:54:46.593Z,1.20
2022-11-22T23:57:13.289Z,1.50
2022-11-22T23:59:39.881Z,1.30
